< Typhoon 198627 1986 Season Typhoon 198629 >
Typhoon 198628 (MARGE)
General InformationTrack Information on Google MapsDetailed Wind InformationList of All Images || Disaster Info.ResourceGoogle EarthGE AnimationAtom FeedGeoJSON
Detalied Best Track (Time Zone = UTC)
Year Month Day Hour Lat. Long. Pressure (hPa) Wind (kt) Class Image Chart
1986 12 12 06 5.0 169.0 1002 0 2 Image Chart
1986 12 12 12 5.0 168.0 1002 0 2 Image Chart
1986 12 12 18 5.0 167.0 1002 0 2 Image Chart
1986 12 13 00 5.0 166.0 1002 0 2 Image Chart
1986 12 13 06 5.5 165.0 1002 0 2 Image Chart
1986 12 13 12 6.0 163.5 1002 0 2 Image Chart
1986 12 13 18 6.5 162.5 1002 0 2 Image Chart
1986 12 14 00 6.8 161.5 1002 0 2 Image Chart
1986 12 14 06 6.9 160.5 1002 0 2 Image Chart
1986 12 14 12 6.8 159.5 1004 0 2 Image Chart
1986 12 14 18 6.8 158.5 1002 0 2 Image Chart
1986 12 15 00 7.2 157.3 1002 0 2 Image Chart
1986 12 15 06 7.7 155.7 1000 0 2 Image Chart
1986 12 15 12 8.2 154.0 998 35 3 Image Chart
1986 12 15 18 8.6 152.3 996 35 3 Image Chart
1986 12 16 00 9.0 150.6 994 40 3 Image Chart
1986 12 16 06 9.3 149.2 992 45 3 Image Chart
1986 12 16 12 9.7 148.2 990 45 3 Image Chart
1986 12 16 18 10.1 147.2 990 55 4 Image Chart
1986 12 17 00 10.6 146.2 985 55 4 Image Chart
1986 12 17 06 10.7 145.2 985 70 5 Image Chart
1986 12 17 12 10.7 144.4 980 70 5 Image Chart
1986 12 17 18 10.6 143.7 980 70 5 Image Chart
1986 12 18 00 10.5 143.0 980 70 5 Image Chart
1986 12 18 06 10.4 142.1 980 70 5 Image Chart
1986 12 18 12 10.3 141.2 980 65 5 Image Chart
1986 12 18 18 10.5 140.1 980 65 5 Image Chart
1986 12 19 00 10.9 139.1 975 70 5 Image Chart
1986 12 19 06 11.4 138.1 970 70 5 Image Chart
1986 12 19 12 11.8 136.9 965 70 5 Image Chart
1986 12 19 18 11.7 135.5 960 80 5 Image Chart
1986 12 20 00 11.2 134.1 955 80 5 Image Chart
1986 12 20 06 10.6 132.7 955 80 5 Image Chart
1986 12 20 12 10.1 131.2 955 80 5 Image Chart
1986 12 20 18 9.5 129.9 955 80 5 Image Chart
1986 12 21 00 9.1 128.5 950 85 5 Image Chart
1986 12 21 06 9.3 127.0 970 85 5 Image Chart
1986 12 21 12 9.6 125.4 980 60 4 Image Chart
1986 12 21 18 9.9 123.7 990 60 4 Image Chart
1986 12 22 00 10.1 122.6 992 50 4 Image Chart
1986 12 22 06 10.2 121.4 996 50 4 Image Chart
1986 12 22 12 10.4 120.3 998 45 3 Image Chart
1986 12 22 18 10.8 119.2 1000 40 3 Image Chart
1986 12 23 00 11.3 118.2 1002 35 3 Image Chart
1986 12 23 06 11.8 117.5 1002 35 3 Image Chart
1986 12 23 12 12.2 116.7 1004 35 3 Image Chart
1986 12 23 18 12.4 115.9 1008 0 2 Image Chart
1986 12 24 00 12.5 115.0 1008 0 2 Image Chart
1986 12 24 06 12.3 114.1 1008 0 2 Image Chart
1986 12 24 12 12.1 113.4 1008 0 2 Image Chart
1986 12 24 18 11.9 112.8 1008 0 2 Image Chart
1986 12 25 00 11.5 112.0 1008 0 2 Image Chart
1986 12 25 06 11.0 111.0 1008 0 2 Image Chart
1986 12 25 12 10.4 110.3 1008 0 2 Image Chart
1986 12 25 18 9.8 109.5 1010 0 2 Image Chart
Japan Meteorological Agency Best Track Data | Correction Date : 1992-10-21
< Typhoon 198627 1986 Season Typhoon 198629 >

Help